Time;durP1;ratioP1;P1;durP2;ratioP2;P2;SDS_P1;SDS_P2;PMS_P1;PMS_P2;Temp;Humidity;BMP_temperature;BMP_pressure;BME280_temperature;BME280_humidity;BME280_pressure;Samples;Min_cycle;Max_cycle;Signal;HPM_P1;HPM_P2
2021/06/26 00:00:46;;;;;;;;;;;;;;;25.09;47.46;100729.91;5120420;27;19916;-70
2021/06/26 00:03:31;;;;;;;;;;;;;;;24.79;48.30;100724.22;5127829;27;19928;-71
2021/06/26 00:06:15;;;;;;;;;;;;;;;25.01;47.18;100723.63;5127851;27;19916;-69
2021/06/26 00:09:00;;;;;;;;;;;;;;;24.99;46.81;100725.25;5112769;27;19915;-71
2021/06/26 00:11:45;;;;;;;;;;;;;;;24.65;47.64;100725.91;5117368;27;20290;-70
2021/06/26 00:14:29;;;;;;;;;;;;;;;24.56;48.17;100730.38;5123895;27;19915;-71
2021/06/26 00:17:14;;;;;;;;;;;;;;;24.36;49.75;100730.13;5120185;27;19916;-71
2021/06/26 00:19:58;;;;;;;;;;;;;;;24.52;49.74;100727.63;5113004;28;19915;-70
2021/06/26 00:22:42;;;;;;;;;;;;;;;24.52;49.37;100724.06;5125105;27;19916;-71
2021/06/26 00:25:27;;;;;;;;;;;;;;;24.69;49.20;100729.44;5117836;27;19920;-70
2021/06/26 00:28:11;;;;;;;;;;;;;;;24.83;48.62;100719.41;5113815;27;19924;-70
2021/06/26 00:30:55;;;;;;;;;;;;;;;24.80;48.60;100720.22;5117163;27;19915;-70
2021/06/26 00:33:40;;;;;;;;;;;;;;;24.86;48.29;100722.16;5122301;27;20295;-71
2021/06/26 00:36:24;;;;;;;;;;;;;;;24.90;47.21;100711.78;5117549;27;19916;-71
2021/06/26 00:39:09;;;;;;;;;;;;;;;24.97;46.59;100710.94;5124701;27;19915;-71
2021/06/26 00:41:53;;;;;;;;;;;;;;;24.98;46.74;100720.88;5124020;27;19916;-72
2021/06/26 00:44:38;;;;;;;;;;;;;;;24.95;46.76;100724.47;5117153;27;19919;-70
2021/06/26 00:47:26;;;;;;;;;;;;;;;24.94;47.06;100722.91;5119974;27;20452;-70
2021/06/26 00:50:19;;;;;;;;;;;;;;;24.89;47.09;100720.56;5123853;27;20295;-71
2021/06/26 00:53:03;;;;;;;;;;;;;;;24.81;47.46;100717.03;5111356;28;19920;-72
2021/06/26 00:55:52;;;;;;;;;;;;;;;24.55;48.60;100715.66;5122791;27;19915;-71
2021/06/26 00:58:36;;;;;;;;;;;;;;;24.55;48.67;100724.00;5115695;28;19916;-72
2021/06/26 01:01:21;;;;;;;;;;;;;;;24.53;48.58;100726.41;5115035;27;19915;-71
2021/06/26 01:04:06;;;;;;;;;;;;;;;24.59;48.54;100724.78;5118487;27;19916;-71
2021/06/26 01:06:50;;;;;;;;;;;;;;;24.49;49.29;100728.44;5122771;27;20013;-71
2021/06/26 01:09:35;;;;;;;;;;;;;;;24.60;48.86;100736.69;5117344;27;19916;-71
2021/06/26 01:12:19;;;;;;;;;;;;;;;24.23;49.26;100729.03;5122109;27;19919;-71
2021/06/26 01:15:05;;;;;;;;;;;;;;;24.29;49.21;100727.38;5129518;27;20279;-71
2021/06/26 01:17:49;;;;;;;;;;;;;;;24.36;48.89;100735.69;5120137;27;19924;-71
2021/06/26 01:20:35;;;;;;;;;;;;;;;24.49;48.37;100728.44;5121873;27;19923;-71
2021/06/26 01:23:20;;;;;;;;;;;;;;;24.57;48.30;100731.94;5109313;27;20380;-71
2021/06/26 01:26:04;;;;;;;;;;;;;;;24.42;48.52;100733.28;5122738;27;19915;-70
2021/06/26 01:28:49;;;;;;;;;;;;;;;24.54;48.63;100733.56;5119430;27;20376;-70
2021/06/26 01:31:34;;;;;;;;;;;;;;;24.50;48.42;100738.34;5122369;27;19916;-71
2021/06/26 01:34:19;;;;;;;;;;;;;;;24.46;48.57;100737.59;5115499;27;19916;-71
2021/06/26 01:37:04;;;;;;;;;;;;;;;24.60;48.36;100728.34;5119896;27;19916;-70
2021/06/26 01:39:49;;;;;;;;;;;;;;;24.23;49.38;100729.81;5120579;27;19916;-72
2021/06/26 01:42:33;;;;;;;;;;;;;;;24.33;49.15;100728.16;5126985;27;19915;-72
2021/06/26 01:45:19;;;;;;;;;;;;;;;24.53;49.23;100725.63;5119191;27;19915;-71
2021/06/26 01:48:03;;;;;;;;;;;;;;;24.83;48.23;100719.41;5123636;27;19915;-70
2021/06/26 01:50:48;;;;;;;;;;;;;;;24.83;48.42;100733.31;5121761;27;19916;-70
2021/06/26 01:53:33;;;;;;;;;;;;;;;24.94;48.26;100720.13;5121815;27;19920;-70
2021/06/26 01:56:17;;;;;;;;;;;;;;;25.00;47.84;100719.25;5123207;27;19919;-71
2021/06/26 01:59:02;;;;;;;;;;;;;;;25.16;47.31;100712.31;5123601;27;20329;-71
2021/06/26 02:01:47;;;;;;;;;;;;;;;25.21;46.82;100715.44;5119786;27;19915;-70
2021/06/26 02:04:32;;;;;;;;;;;;;;;25.10;46.89;100714.78;5110641;27;19923;-69
2021/06/26 02:07:17;;;;;;;;;;;;;;;24.85;47.26;100714.19;5126898;27;19916;-70
2021/06/26 02:10:02;;;;;;;;;;;;;;;24.69;47.47;100714.75;5120988;27;20379;-70
2021/06/26 02:12:46;;;;;;;;;;;;;;;24.62;47.24;100718.41;5129786;27;19923;-70
2021/06/26 02:15:31;;;;;;;;;;;;;;;24.61;47.47;100711.25;5127648;27;20387;-71
2021/06/26 02:18:15;;;;;;;;;;;;;;;24.74;47.31;100710.75;5116236;27;19916;-71
2021/06/26 02:21:00;;;;;;;;;;;;;;;24.76;47.11;100697.22;5110279;27;19916;-70
2021/06/26 02:23:45;;;;;;;;;;;;;;;24.78;47.49;100698.41;5105949;28;19920;-71
2021/06/26 02:26:30;;;;;;;;;;;;;;;24.98;47.14;100695.84;5119269;27;19920;-71
2021/06/26 02:29:14;;;;;;;;;;;;;;;24.87;47.15;100703.47;5123099;27;19915;-71
2021/06/26 02:31:59;;;;;;;;;;;;;;;24.88;46.85;100699.50;5126036;27;19928;-71
2021/06/26 02:34:44;;;;;;;;;;;;;;;24.70;46.40;100697.66;5119728;27;20448;-66
2021/06/26 02:37:33;;;;;;;;;;;;;;;24.76;46.67;100700.00;5119030;28;19916;-67
2021/06/26 02:40:20;;;;;;;;;;;;;;;24.80;46.77;100704.31;5121823;28;19915;-66
2021/06/26 02:43:05;;;;;;;;;;;;;;;24.81;46.41;100713.44;5106293;28;19915;-67
2021/06/26 02:45:49;;;;;;;;;;;;;;;24.96;45.85;100715.72;5121267;28;19916;-68
2021/06/26 02:48:37;;;;;;;;;;;;;;;25.14;46.57;100716.31;5113584;28;20256;-68
2021/06/26 02:51:21;;;;;;;;;;;;;;;25.36;46.01;100721.63;5121103;28;20375;-68
2021/06/26 02:54:06;;;;;;;;;;;;;;;25.43;45.44;100719.56;5104336;28;19920;-67
2021/06/26 02:56:50;;;;;;;;;;;;;;;25.38;45.44;100713.66;5119077;28;19916;-68
2021/06/26 02:59:35;;;;;;;;;;;;;;;25.36;45.64;100710.50;5120716;28;20287;-67
2021/06/26 03:02:20;;;;;;;;;;;;;;;25.51;45.45;100718.25;5120799;28;19915;-66
2021/06/26 03:05:04;;;;;;;;;;;;;;;25.60;45.39;100722.59;5120906;28;19916;-67
2021/06/26 03:07:50;;;;;;;;;;;;;;;25.67;44.31;100719.69;5116701;28;19915;-68
2021/06/26 03:10:34;;;;;;;;;;;;;;;25.57;44.82;100721.41;5120683;28;19916;-66
2021/06/26 03:13:19;;;;;;;;;;;;;;;25.71;44.77;100726.00;5120324;28;19920;-67
2021/06/26 03:16:04;;;;;;;;;;;;;;;25.75;44.58;100726.78;5120563;28;19915;-67
2021/06/26 03:18:48;;;;;;;;;;;;;;;25.60;43.26;100725.38;5113773;28;19916;-67
2021/06/26 03:21:33;;;;;;;;;;;;;;;25.50;44.13;100730.59;5120504;28;19920;-67
2021/06/26 03:24:17;;;;;;;;;;;;;;;25.22;44.92;100728.16;5120274;28;19915;-66
2021/06/26 03:27:01;;;;;;;;;;;;;;;25.38;44.18;100725.59;5118795;28;19916;-66
2021/06/26 03:29:47;;;;;;;;;;;;;;;25.21;44.48;100725.78;5117749;28;19916;-67
2021/06/26 03:32:31;;;;;;;;;;;;;;;25.10;44.78;100732.25;5120262;28;19920;-67
2021/06/26 03:35:16;;;;;;;;;;;;;;;25.28;44.59;100739.63;5116389;27;19916;-67
2021/06/26 03:38:01;;;;;;;;;;;;;;;25.08;43.81;100737.47;5095308;28;20395;-67
2021/06/26 03:40:45;;;;;;;;;;;;;;;25.05;44.30;100740.25;5099588;28;19916;-67
2021/06/26 03:43:30;;;;;;;;;;;;;;;25.21;44.95;100737.72;5099657;28;19916;-66
2021/06/26 03:46:15;;;;;;;;;;;;;;;25.22;44.77;100738.50;5084190;28;19916;-67
2021/06/26 03:48:59;;;;;;;;;;;;;;;25.09;44.35;100735.47;5099668;28;19916;-66
2021/06/26 03:51:44;;;;;;;;;;;;;;;24.43;44.98;100743.19;5099396;28;20283;-66
2021/06/26 03:54:28;;;;;;;;;;;;;;;24.17;46.57;100744.56;5099450;28;19946;-68
2021/06/26 03:57:13;;;;;;;;;;;;;;;24.43;46.81;100751.53;5096873;28;20415;-68
2021/06/26 03:59:57;;;;;;;;;;;;;;;24.88;45.92;100753.16;5099419;28;19916;-66
2021/06/26 04:02:42;;;;;;;;;;;;;;;25.07;44.83;100746.22;5099278;28;20295;-66
2021/06/26 04:05:27;;;;;;;;;;;;;;;24.91;44.47;100757.91;5099370;28;19916;-67
2021/06/26 04:08:12;;;;;;;;;;;;;;;25.10;45.27;100757.31;5094409;28;19916;-68
2021/06/26 04:10:57;;;;;;;;;;;;;;;25.23;44.54;100757.59;5099353;28;20106;-66
2021/06/26 04:13:43;;;;;;;;;;;;;;;25.24;44.53;100752.81;5099165;28;19920;-65
2021/06/26 04:16:27;;;;;;;;;;;;;;;25.32;44.51;100765.44;5099347;28;19916;-66
2021/06/26 04:19:14;;;;;;;;;;;;;;;25.36;44.40;100771.75;5099065;28;19916;-67
2021/06/26 04:21:58;;;;;;;;;;;;;;;25.18;44.16;100763.59;5099434;28;19918;-67
2021/06/26 04:24:42;;;;;;;;;;;;;;;25.30;44.60;100762.25;5099073;28;20288;-66
2021/06/26 04:27:27;;;;;;;;;;;;;;;25.26;44.12;100767.09;5096711;28;19916;-66
2021/06/26 04:30:12;;;;;;;;;;;;;;;25.31;44.43;100764.66;5095317;28;19916;-66
2021/06/26 04:32:57;;;;;;;;;;;;;;;25.34;43.58;100769.41;5118142;27;19920;-66
2021/06/26 04:35:41;;;;;;;;;;;;;;;25.10;43.59;100778.78;5120745;27;19916;-65
2021/06/26 04:38:26;;;;;;;;;;;;;;;24.85;44.49;100776.19;5103522;28;19916;-66
2021/06/26 04:41:11;;;;;;;;;;;;;;;24.77;44.42;100785.03;5115108;27;19915;-67
2021/06/26 04:43:55;;;;;;;;;;;;;;;24.70;44.66;100783.88;5131703;27;19915;-65
2021/06/26 04:46:40;;;;;;;;;;;;;;;24.89;44.89;100788.13;5127148;27;19916;-66
2021/06/26 04:49:25;;;;;;;;;;;;;;;24.87;44.51;100792.50;5118057;28;19916;-66
2021/06/26 04:52:10;;;;;;;;;;;;;;;25.08;45.13;100789.56;5122589;27;19915;-66
2021/06/26 04:54:55;;;;;;;;;;;;;;;25.15;44.70;100792.25;5127652;27;19915;-66
2021/06/26 04:57:39;;;;;;;;;;;;;;;25.37;44.43;100790.84;5113650;27;19916;-67
2021/06/26 05:00:24;;;;;;;;;;;;;;;25.43;43.72;100794.75;5102564;28;19916;-67
2021/06/26 05:03:09;;;;;;;;;;;;;;;25.47;44.44;100794.72;5102783;28;20396;-65
2021/06/26 05:05:53;;;;;;;;;;;;;;;25.49;44.39;100792.31;5101272;28;20151;-65
2021/06/26 05:08:38;;;;;;;;;;;;;;;25.63;43.68;100792.16;5096494;28;19916;-65
2021/06/26 05:11:24;;;;;;;;;;;;;;;25.58;43.08;100800.97;5102402;28;20375;-65
2021/06/26 05:14:09;;;;;;;;;;;;;;;25.63;43.12;100799.72;5086965;28;19920;-67
2021/06/26 05:16:54;;;;;;;;;;;;;;;25.54;42.94;100797.44;5101051;28;19916;-65
2021/06/26 05:19:38;;;;;;;;;;;;;;;25.45;42.84;100802.69;5102377;28;19916;-67
2021/06/26 05:22:23;;;;;;;;;;;;;;;25.44;43.10;100801.91;5103048;28;19919;-65
2021/06/26 05:25:07;;;;;;;;;;;;;;;25.41;43.29;100805.50;5102289;28;19916;-66
2021/06/26 05:27:52;;;;;;;;;;;;;;;25.62;43.78;100809.28;5102643;28;19924;-66
2021/06/26 05:30:37;;;;;;;;;;;;;;;25.69;43.40;100810.00;5123566;27;19915;-67
2021/06/26 05:33:21;;;;;;;;;;;;;;;25.83;42.87;100811.84;5106922;28;19920;-66
2021/06/26 05:36:06;;;;;;;;;;;;;;;25.64;40.36;100812.47;5117066;28;19916;-66
2021/06/26 05:38:50;;;;;;;;;;;;;;;25.53;40.24;100815.34;5090435;28;19916;-66
2021/06/26 05:41:35;;;;;;;;;;;;;;;25.61;40.44;100813.28;5128406;27;19915;-67
2021/06/26 05:44:19;;;;;;;;;;;;;;;25.70;42.52;100816.38;5141155;27;19919;-66
2021/06/26 05:47:04;;;;;;;;;;;;;;;25.81;41.84;100811.44;5084943;28;19924;-68
2021/06/26 05:49:48;;;;;;;;;;;;;;;25.94;42.38;100815.28;5113946;27;19915;-66
2021/06/26 05:52:33;;;;;;;;;;;;;;;25.96;42.01;100815.63;5121419;27;19927;-67
2021/06/26 05:55:18;;;;;;;;;;;;;;;25.87;40.34;100818.94;5112684;27;20383;-68
2021/06/26 05:58:04;;;;;;;;;;;;;;;25.87;40.54;100812.56;5118166;27;19923;-66
2021/06/26 06:00:49;;;;;;;;;;;;;;;25.89;40.26;100815.75;5106178;28;19916;-67
2021/06/26 06:03:34;;;;;;;;;;;;;;;25.86;41.25;100809.00;5123893;27;19920;-65
2021/06/26 06:06:19;;;;;;;;;;;;;;;25.86;41.01;100822.91;5126900;27;19916;-66
2021/06/26 06:09:05;;;;;;;;;;;;;;;25.89;41.21;100818.53;5118485;27;20375;-67
2021/06/26 06:11:49;;;;;;;;;;;;;;;25.94;41.51;100823.63;5103402;27;19915;-64
2021/06/26 06:14:33;;;;;;;;;;;;;;;25.91;41.33;100827.25;5130110;27;19920;-66
2021/06/26 06:17:18;;;;;;;;;;;;;;;25.88;40.75;100828.09;5123995;27;20395;-67
2021/06/26 06:20:04;;;;;;;;;;;;;;;26.03;41.96;100837.84;5111881;27;19916;-65
2021/06/26 06:22:49;;;;;;;;;;;;;;;26.10;41.28;100832.19;5122478;27;19915;-67
2021/06/26 06:25:34;;;;;;;;;;;;;;;26.12;41.70;100835.34;5126871;27;20375;-65
2021/06/26 06:28:18;;;;;;;;;;;;;;;26.24;42.00;100836.81;5108555;28;20297;-65
2021/06/26 06:31:03;;;;;;;;;;;;;;;26.36;41.82;100831.44;5115660;27;19920;-66
2021/06/26 06:33:47;;;;;;;;;;;;;;;26.36;41.23;100827.88;5125044;27;19920;-67
2021/06/26 06:36:32;;;;;;;;;;;;;;;26.38;41.36;100834.63;5119730;27;19916;-68
2021/06/26 06:39:16;;;;;;;;;;;;;;;26.40;41.04;100837.00;5122948;27;19915;-68
2021/06/26 06:42:00;;;;;;;;;;;;;;;26.41;41.18;100835.00;5125023;27;19915;-68
2021/06/26 06:44:44;;;;;;;;;;;;;;;26.41;40.76;100835.00;5118401;27;20391;-67
2021/06/26 06:47:29;;;;;;;;;;;;;;;26.44;40.87;100834.94;5098324;28;20008;-66
2021/06/26 06:50:13;;;;;;;;;;;;;;;26.56;41.22;100841.94;5111260;27;20303;-68
2021/06/26 06:53:02;;;;;;;;;;;;;;;26.62;41.21;100834.66;5097306;27;19923;-68
2021/06/26 06:55:51;;;;;;;;;;;;;;;26.60;39.82;100832.31;5111852;27;19915;-67
2021/06/26 06:58:35;;;;;;;;;;;;;;;26.54;40.63;100839.56;5096833;28;19916;-67
2021/06/26 07:01:20;;;;;;;;;;;;;;;26.53;40.19;100842.78;5122741;27;19915;-68
2021/06/26 07:04:05;;;;;;;;;;;;;;;26.61;40.11;100844.25;5124416;27;19923;-67
2021/06/26 07:06:49;;;;;;;;;;;;;;;26.76;39.89;100848.41;5124393;27;19920;-67
2021/06/26 07:09:34;;;;;;;;;;;;;;;26.77;39.86;100844.38;5114476;28;19920;-68
2021/06/26 07:12:18;;;;;;;;;;;;;;;26.71;39.74;100837.72;5109579;28;20375;-67
2021/06/26 07:15:04;;;;;;;;;;;;;;;26.66;40.22;100838.19;5100566;28;19928;-67
2021/06/26 07:17:49;;;;;;;;;;;;;;;26.77;40.36;100836.00;5108528;28;19916;-69
2021/06/26 07:20:33;;;;;;;;;;;;;;;27.82;38.55;100843.78;5114572;28;19915;-67
2021/06/26 07:23:17;;;;;;;;;;;;;;;28.25;37.42;100834.50;5096890;28;19919;-68
2021/06/26 07:26:02;;;;;;;;;;;;;;;28.77;36.31;100829.72;5108339;28;19916;-68
2021/06/26 07:28:47;;;;;;;;;;;;;;;29.14;35.97;100847.19;5093319;28;19920;-69
2021/06/26 07:31:33;;;;;;;;;;;;;;;29.41;34.62;100842.09;5112305;28;19915;-69
2021/06/26 07:34:19;;;;;;;;;;;;;;;29.35;34.37;100848.69;5105315;28;19938;-68
2021/06/26 07:37:04;;;;;;;;;;;;;;;29.08;35.10;100854.56;5102937;28;19916;-68
2021/06/26 07:39:48;;;;;;;;;;;;;;;29.44;34.34;100849.63;5113329;27;19916;-69
2021/06/26 07:42:33;;;;;;;;;;;;;;;29.50;34.28;100845.06;5088947;28;20291;-68
2021/06/26 07:45:17;;;;;;;;;;;;;;;29.13;34.83;100845.63;5113220;28;19916;-69
2021/06/26 07:48:02;;;;;;;;;;;;;;;30.11;33.20;100846.97;5110415;28;19916;-68
2021/06/26 07:50:51;;;;;;;;;;;;;;;30.88;31.71;100854.22;5114016;28;19916;-67
2021/06/26 07:53:36;;;;;;;;;;;;;;;32.57;29.07;100844.44;5103035;28;20308;-67
2021/06/26 07:56:20;;;;;;;;;;;;;;;34.10;26.76;100852.00;5099641;28;19916;-69
2021/06/26 07:59:05;;;;;;;;;;;;;;;31.26;31.40;100840.88;5107095;28;20375;-69
2021/06/26 08:01:50;;;;;;;;;;;;;;;29.12;35.08;100849.63;5119744;28;19916;-68
2021/06/26 08:04:34;;;;;;;;;;;;;;;29.12;35.30;100835.63;5113151;28;19920;-69
2021/06/26 08:07:18;;;;;;;;;;;;;;;29.80;33.82;100843.81;5101190;28;19916;-69
2021/06/26 08:10:05;;;;;;;;;;;;;;;31.09;31.81;100841.50;5108087;28;19916;-68
2021/06/26 08:12:50;;;;;;;;;;;;;;;33.13;28.02;100843.38;5118031;28;19916;-69
2021/06/26 08:15:37;;;;;;;;;;;;;;;34.93;25.68;100847.63;5111486;28;20391;-67
2021/06/26 08:18:22;;;;;;;;;;;;;;;35.90;24.35;100848.63;5103979;28;19916;-68
2021/06/26 08:21:07;;;;;;;;;;;;;;;38.43;21.20;100853.00;5115094;28;19916;-70
2021/06/26 08:23:52;;;;;;;;;;;;;;;39.75;19.82;100851.34;5108813;28;19916;-70
2021/06/26 08:26:37;;;;;;;;;;;;;;;37.75;21.30;100850.03;5107131;28;19916;-69
2021/06/26 08:29:21;;;;;;;;;;;;;;;40.30;18.66;100861.28;5117943;28;19916;-70
2021/06/26 08:32:06;;;;;;;;;;;;;;;42.42;16.28;100860.38;5115953;28;20367;-70
2021/06/26 08:34:50;;;;;;;;;;;;;;;35.82;23.84;100849.47;5113758;28;19920;-72
2021/06/26 08:37:35;;;;;;;;;;;;;;;33.08;27.61;100832.72;5098881;28;19923;-70
2021/06/26 08:40:20;;;;;;;;;;;;;;;38.47;21.36;100852.78;5100945;28;19916;-70
2021/06/26 08:43:05;;;;;;;;;;;;;;;41.15;17.93;100851.28;5114042;28;19916;-69
2021/06/26 08:45:50;;;;;;;;;;;;;;;41.71;17.43;100863.22;5094955;28;20290;-69
2021/06/26 08:48:35;;;;;;;;;;;;;;;42.40;16.51;100857.28;5097381;28;19919;-71
2021/06/26 08:51:20;;;;;;;;;;;;;;;43.40;15.64;100859.03;5110130;28;19920;-70
2021/06/26 08:54:09;;;;;;;;;;;;;;;38.13;21.18;100850.94;5111018;28;20182;-74
2021/06/26 08:56:53;;;;;;;;;;;;;;;34.53;26.10;100850.78;5114769;28;19916;-75
2021/06/26 08:59:38;;;;;;;;;;;;;;;32.73;31.89;100837.00;5113584;28;19919;-71
2021/06/26 09:02:23;;;;;;;;;;;;;;;39.13;19.83;100848.81;5112019;28;19915;-70
2021/06/26 09:05:08;;;;;;;;;;;;;;;41.42;18.40;100850.38;5116370;28;20303;-72
2021/06/26 09:07:52;;;;;;;;;;;;;;;40.29;18.14;100851.19;5107187;28;19916;-71
2021/06/26 09:10:37;;;;;;;;;;;;;;;40.21;19.49;100850.16;5103638;28;19919;-70
2021/06/26 09:13:24;;;;;;;;;;;;;;;36.50;23.17;100844.47;5116307;28;20391;-72
2021/06/26 09:16:12;;;;;;;;;;;;;;;34.91;25.98;100841.66;5118688;28;19915;-75
2021/06/26 09:18:57;;;;;;;;;;;;;;;32.90;28.84;100836.28;5111454;28;19920;-73
2021/06/26 09:21:43;;;;;;;;;;;;;;;37.16;22.77;100844.69;5118992;28;19916;-71
2021/06/26 09:24:43;;;;;;;;;;;;;;;38.38;20.89;100850.91;5112096;28;19916;-72
2021/06/26 09:27:32;;;;;;;;;;;;;;;42.45;16.88;100850.75;5108522;28;19923;-71
2021/06/26 09:30:17;;;;;;;;;;;;;;;43.97;15.15;100863.47;5117167;28;19915;-70
2021/06/26 09:33:08;;;;;;;;;;;;;;;46.18;12.88;100862.38;5117049;28;19916;-73
2021/06/26 09:36:04;;;;;;;;;;;;;;;44.98;13.77;100862.44;5119244;28;20299;-72
2021/06/26 09:38:54;;;;;;;;;;;;;;;43.97;15.31;100856.94;5113008;28;19915;-71
2021/06/26 09:41:39;;;;;;;;;;;;;;;46.34;13.18;100866.94;5100509;28;19916;-73
2021/06/26 09:44:24;;;;;;;;;;;;;;;39.52;19.69;100849.75;5120080;28;19916;-73
2021/06/26 09:47:15;;;;;;;;;;;;;;;36.64;23.01;100837.25;5116062;28;19916;-71
2021/06/26 09:50:08;;;;;;;;;;;;;;;34.98;25.91;100841.31;5115939;28;19916;-74
2021/06/26 09:52:52;;;;;;;;;;;;;;;36.33;23.85;100834.94;5102788;28;19915;-73
2021/06/26 09:55:38;;;;;;;;;;;;;;;40.63;18.38;100846.25;5102165;28;19920;-71
2021/06/26 09:58:23;;;;;;;;;;;;;;;43.27;16.42;100848.28;5115744;28;19916;-71
2021/06/26 10:01:07;;;;;;;;;;;;;;;42.86;16.75;100842.78;5120273;28;19978;-73
2021/06/26 10:03:52;;;;;;;;;;;;;;;44.08;14.99;100846.06;5121196;28;19916;-72
2021/06/26 10:06:37;;;;;;;;;;;;;;;45.97;13.19;100847.97;5114640;28;20327;-71
2021/06/26 10:09:22;;;;;;;;;;;;;;;48.36;11.63;100843.03;5106869;27;19919;-73
2021/06/26 10:12:10;;;;;;;;;;;;;;;44.44;14.38;100837.13;5114142;28;20303;-73
2021/06/26 10:14:56;;;;;;;;;;;;;;;44.55;13.94;100837.66;5109121;28;20383;-72
2021/06/26 10:17:41;;;;;;;;;;;;;;;45.98;12.53;100835.13;5108363;28;19916;-73
2021/06/26 10:20:27;;;;;;;;;;;;;;;48.24;11.68;100844.75;5116258;28;19916;-73
2021/06/26 10:23:12;;;;;;;;;;;;;;;47.14;12.34;100836.19;5121221;28;19916;-71
2021/06/26 10:25:58;;;;;;;;;;;;;;;42.94;15.80;100820.81;5113047;27;19920;-70
2021/06/26 10:28:47;;;;;;;;;;;;;;;45.76;13.37;100820.53;5109700;28;20395;-73
2021/06/26 10:31:42;;;;;;;;;;;;;;;43.55;14.90;100822.13;5108091;27;19916;-72
2021/06/26 10:34:27;;;;;;;;;;;;;;;45.61;13.44;100811.75;5118565;28;20391;-73
2021/06/26 10:37:14;;;;;;;;;;;;;;;49.06;10.60;100816.34;5111652;27;19915;-72
2021/06/26 10:40:05;;;;;;;;;;;;;;;49.45;9.85;100816.91;5111133;28;19929;-73
2021/06/26 10:42:49;;;;;;;;;;;;;;;46.27;12.72;100810.09;5103018;28;19916;-73
2021/06/26 10:45:34;;;;;;;;;;;;;;;45.92;12.62;100796.38;5120124;28;19916;-73
2021/06/26 10:48:23;;;;;;;;;;;;;;;41.61;16.72;100788.50;5114847;28;19915;-75
2021/06/26 10:51:09;;;;;;;;;;;;;;;38.53;19.83;100776.84;5117201;28;19916;-73
2021/06/26 10:53:53;;;;;;;;;;;;;;;36.62;22.85;100771.78;5096084;28;19920;-73
2021/06/26 10:56:38;;;;;;;;;;;;;;;35.32;23.97;100758.75;5098432;28;19920;-71
2021/06/26 10:59:22;;;;;;;;;;;;;;;34.61;25.37;100759.53;5104924;28;19915;-71
2021/06/26 11:02:07;;;;;;;;;;;;;;;33.81;26.85;100748.91;5101386;28;19915;-71
2021/06/26 11:04:51;;;;;;;;;;;;;;;42.62;15.78;100776.94;5112837;28;19916;-73
2021/06/26 11:07:37;;;;;;;;;;;;;;;44.00;14.87;100784.16;5113126;28;19920;-74
2021/06/26 11:10:21;;;;;;;;;;;;;;;47.46;11.77;100783.88;5101112;28;19920;-74
2021/06/26 11:13:16;;;;;;;;;;;;;;;47.51;11.11;100779.25;5117939;28;20283;-74
2021/06/26 11:16:05;;;;;;;;;;;;;;;40.29;17.49;100756.34;5117655;28;19923;-74
2021/06/26 11:18:53;;;;;;;;;;;;;;;44.23;14.32;100771.00;5111382;28;19919;-74
2021/06/26 11:21:42;;;;;;;;;;;;;;;48.18;11.10;100774.91;5111021;28;19919;-74
2021/06/26 11:24:31;;;;;;;;;;;;;;;49.61;9.79;100781.53;5102786;28;20403;-74
2021/06/26 11:27:20;;;;;;;;;;;;;;;49.53;10.28;100774.28;5115999;28;19916;-74
2021/06/26 11:30:06;;;;;;;;;;;;;;;48.82;10.36;100774.41;5114062;28;19916;-74
2021/06/26 11:32:54;;;;;;;;;;;;;;;48.90;10.31;100767.84;5118226;28;20371;-74
2021/06/26 11:35:40;;;;;;;;;;;;;;;42.22;16.07;100742.25;5115091;28;19920;-72
2021/06/26 11:38:25;;;;;;;;;;;;;;;42.87;16.01;100749.91;5105743;27;19920;-75
2021/06/26 11:41:11;;;;;;;;;;;;;;;43.32;15.34;100744.34;5115909;28;19916;-75
2021/06/26 11:43:56;;;;;;;;;;;;;;;44.39;14.20;100741.25;5099487;28;19915;-74
2021/06/26 11:46:41;;;;;;;;;;;;;;;45.12;12.74;100737.63;5112802;28;19924;-75
2021/06/26 11:49:35;;;;;;;;;;;;;;;45.96;12.58;100737.16;5102748;28;19923;-75
2021/06/26 11:52:19;;;;;;;;;;;;;;;46.53;11.83;100737.19;5115273;28;19916;-75
2021/06/26 11:55:04;;;;;;;;;;;;;;;47.45;11.68;100741.97;5113339;28;19920;-75
2021/06/26 11:57:52;;;;;;;;;;;;;;;45.25;13.42;100726.09;5113141;28;19915;-75
2021/06/26 12:00:38;;;;;;;;;;;;;;;45.60;12.87;100733.38;5115585;28;20390;-74
2021/06/26 12:03:22;;;;;;;;;;;;;;;44.14;14.27;100725.53;5109952;28;19916;-74
2021/06/26 12:06:11;;;;;;;;;;;;;;;44.68;13.92;100722.91;5110894;27;19915;-74
2021/06/26 12:08:57;;;;;;;;;;;;;;;45.25;13.28;100728.97;5112776;28;19920;-73
2021/06/26 12:11:42;;;;;;;;;;;;;;;44.81;14.06;100727.06;5113163;28;19915;-75
2021/06/26 12:14:29;;;;;;;;;;;;;;;44.00;14.26;100718.22;5112841;27;19928;-75
2021/06/26 12:17:16;;;;;;;;;;;;;;;43.38;14.92;100715.59;5111136;28;20376;-75
2021/06/26 12:20:01;;;;;;;;;;;;;;;42.07;16.53;100707.59;5104171;28;19915;-75
2021/06/26 12:22:46;;;;;;;;;;;;;;;39.22;20.27;100695.69;5114203;28;19941;-75
2021/06/26 12:25:38;;;;;;;;;;;;;;;38.54;21.01;100689.50;5111298;28;19935;-74
2021/06/26 12:28:23;;;;;;;;;;;;;;;37.32;23.51;100686.50;5109361;28;19924;-74
2021/06/26 12:31:07;;;;;;;;;;;;;;;36.63;24.23;100688.28;5111984;28;19916;-74
2021/06/26 12:34:00;;;;;;;;;;;;;;;36.62;24.00;100689.59;5114720;28;19916;-74
2021/06/26 12:36:55;;;;;;;;;;;;;;;35.92;24.93;100686.72;5112044;28;19924;-75
2021/06/26 12:39:40;;;;;;;;;;;;;;;35.61;25.01;100676.69;5111127;28;20307;-74
2021/06/26 12:42:25;;;;;;;;;;;;;;;35.39;25.84;100670.69;5113006;27;19916;-75
2021/06/26 12:45:09;;;;;;;;;;;;;;;33.58;28.93;100664.91;5107524;28;20378;-74
2021/06/26 12:48:28;;;;;;;;;;;;;;;32.97;29.69;100664.06;5111435;28;20306;-73
2021/06/26 12:51:15;;;;;;;;;;;;;;;33.45;29.05;100659.50;5069955;28;19915;-73
2021/06/26 12:54:05;;;;;;;;;;;;;;;33.74;28.75;100649.69;5114059;28;20371;-73
2021/06/26 12:56:54;;;;;;;;;;;;;;;33.62;28.61;100645.03;5113615;28;19916;-73
2021/06/26 12:59:38;;;;;;;;;;;;;;;31.51;33.24;100643.19;5118216;28;20363;-73
2021/06/26 13:02:23;;;;;;;;;;;;;;;31.86;32.10;100638.22;5118562;28;19916;-72
2021/06/26 13:05:16;;;;;;;;;;;;;;;31.96;31.75;100622.94;5117419;28;19916;-74
2021/06/26 13:08:01;;;;;;;;;;;;;;;30.97;33.70;100627.56;5114158;28;19916;-73
2021/06/26 13:10:47;;;;;;;;;;;;;;;30.98;34.05;100628.34;5120469;28;19923;-73
2021/06/26 13:13:32;;;;;;;;;;;;;;;32.04;31.68;100624.22;5118171;28;19916;-73
2021/06/26 13:16:16;;;;;;;;;;;;;;;32.33;30.53;100625.84;5114960;28;19924;-74
2021/06/26 13:19:01;;;;;;;;;;;;;;;32.75;29.61;100621.22;5118516;28;20283;-75
2021/06/26 13:21:50;;;;;;;;;;;;;;;32.51;29.53;100612.56;5116898;28;19916;-75
2021/06/26 13:24:35;;;;;;;;;;;;;;;32.13;29.92;100618.63;5113922;27;19915;-73
2021/06/26 13:27:20;;;;;;;;;;;;;;;32.29;29.14;100622.41;5117342;28;19915;-73
2021/06/26 13:30:05;;;;;;;;;;;;;;;32.38;30.05;100616.78;5116127;28;19916;-73
2021/06/26 13:32:56;;;;;;;;;;;;;;;31.47;29.32;100602.41;5116151;28;19916;-74
2021/06/26 13:35:41;;;;;;;;;;;;;;;31.56;30.21;100599.63;5117293;28;19920;-73
2021/06/26 13:38:25;;;;;;;;;;;;;;;31.81;29.35;100597.41;5113503;28;19916;-72
2021/06/26 13:41:10;;;;;;;;;;;;;;;31.86;29.38;100598.81;5113130;28;20290;-73
2021/06/26 13:43:55;;;;;;;;;;;;;;;31.58;29.08;100602.81;5117606;28;19915;-73
2021/06/26 13:46:39;;;;;;;;;;;;;;;31.74;28.45;100596.94;5116220;28;19915;-73
2021/06/26 13:49:24;;;;;;;;;;;;;;;31.59;29.76;100610.78;5111899;28;20390;-69
2021/06/26 13:52:09;;;;;;;;;;;;;;;31.63;29.66;100605.00;5111970;28;19916;-69
2021/06/26 13:54:54;;;;;;;;;;;;;;;31.60;28.72;100601.09;5119286;27;19927;-70
2021/06/26 13:57:38;;;;;;;;;;;;;;;30.77;31.62;100606.63;5116386;28;19916;-70
2021/06/26 14:00:22;;;;;;;;;;;;;;;30.51;31.88;100601.13;5109877;28;19915;-70
2021/06/26 14:03:07;;;;;;;;;;;;;;;30.65;32.53;100587.81;5114468;28;19916;-70
2021/06/26 14:05:52;;;;;;;;;;;;;;;30.81;32.26;100593.25;5116412;28;20155;-70
2021/06/26 14:08:36;;;;;;;;;;;;;;;30.39;32.81;100592.72;5115102;28;19920;-69